sensor_id;sensor_type;location;lat;lon;timestamp;P1;durP1;ratioP1;P2;durP2;ratioP2
18206;SDS011;9229;52.354;20.886;2023-04-27T00:02:42;22.40;;;7.80;;
18206;SDS011;9229;52.354;20.886;2023-04-27T00:07:47;16.52;;;7.93;;
18206;SDS011;9229;52.354;20.886;2023-04-27T00:12:53;15.02;;;6.88;;
18206;SDS011;9229;52.354;20.886;2023-04-27T00:17:55;7.53;;;5.22;;
18206;SDS011;9229;52.354;20.886;2023-04-27T00:22:59;12.18;;;5.70;;
18206;SDS011;9229;52.354;20.886;2023-04-27T00:28:04;10.07;;;5.35;;
18206;SDS011;9229;52.354;20.886;2023-04-27T00:33:06;11.77;;;5.80;;
18206;SDS011;9229;52.354;20.886;2023-04-27T00:38:16;9.65;;;4.97;;
18206;SDS011;9229;52.354;20.886;2023-04-27T00:43:18;11.93;;;5.05;;
18206;SDS011;9229;52.354;20.886;2023-04-27T00:48:20;13.07;;;4.97;;
18206;SDS011;9229;52.354;20.886;2023-04-27T00:53:24;7.30;;;4.25;;
18206;SDS011;9229;52.354;20.886;2023-04-27T00:58:26;7.03;;;4.18;;
18206;SDS011;9229;52.354;20.886;2023-04-27T01:03:28;12.57;;;5.05;;
18206;SDS011;9229;52.354;20.886;2023-04-27T01:08:32;6.80;;;4.25;;
18206;SDS011;9229;52.354;20.886;2023-04-27T01:13:35;7.80;;;4.47;;
18206;SDS011;9229;52.354;20.886;2023-04-27T01:18:49;5.43;;;4.07;;
18206;SDS011;9229;52.354;20.886;2023-04-27T01:24:29;6.13;;;5.00;;
18206;SDS011;9229;52.354;20.886;2023-04-27T01:29:33;11.20;;;4.80;;
18206;SDS011;9229;52.354;20.886;2023-04-27T01:34:38;6.07;;;4.30;;
18206;SDS011;9229;52.354;20.886;2023-04-27T01:39:48;9.25;;;4.65;;
18206;SDS011;9229;52.354;20.886;2023-04-27T01:44:51;6.88;;;4.60;;
18206;SDS011;9229;52.354;20.886;2023-04-27T01:49:53;7.50;;;4.90;;
18206;SDS011;9229;52.354;20.886;2023-04-27T01:54:57;15.32;;;4.93;;
18206;SDS011;9229;52.354;20.886;2023-04-27T02:00:01;9.55;;;4.80;;
18206;SDS011;9229;52.354;20.886;2023-04-27T02:05:20;6.60;;;4.93;;
18206;SDS011;9229;52.354;20.886;2023-04-27T02:10:24;8.90;;;5.13;;
18206;SDS011;9229;52.354;20.886;2023-04-27T02:15:29;16.45;;;5.20;;
18206;SDS011;9229;52.354;20.886;2023-04-27T02:20:31;7.70;;;5.32;;
18206;SDS011;9229;52.354;20.886;2023-04-27T02:25:36;7.55;;;5.40;;
18206;SDS011;9229;52.354;20.886;2023-04-27T02:30:42;10.57;;;5.30;;
18206;SDS011;9229;52.354;20.886;2023-04-27T02:35:46;5.57;;;4.90;;
18206;SDS011;9229;52.354;20.886;2023-04-27T02:40:53;12.50;;;5.45;;
18206;SDS011;9229;52.354;20.886;2023-04-27T02:45:55;9.45;;;5.57;;
18206;SDS011;9229;52.354;20.886;2023-04-27T02:51:02;13.38;;;5.57;;
18206;SDS011;9229;52.354;20.886;2023-04-27T02:56:07;9.30;;;5.05;;
18206;SDS011;9229;52.354;20.886;2023-04-27T03:01:09;7.35;;;5.03;;
18206;SDS011;9229;52.354;20.886;2023-04-27T03:06:11;13.30;;;5.40;;
18206;SDS011;9229;52.354;20.886;2023-04-27T03:11:17;6.38;;;5.35;;
18206;SDS011;9229;52.354;20.886;2023-04-27T03:16:19;9.68;;;6.05;;
18206;SDS011;9229;52.354;20.886;2023-04-27T03:21:21;10.02;;;5.20;;
18206;SDS011;9229;52.354;20.886;2023-04-27T03:26:24;7.25;;;5.43;;
18206;SDS011;9229;52.354;20.886;2023-04-27T03:31:26;9.82;;;5.38;;
18206;SDS011;9229;52.354;20.886;2023-04-27T03:36:28;12.50;;;5.90;;
18206;SDS011;9229;52.354;20.886;2023-04-27T03:41:32;6.72;;;5.18;;
18206;SDS011;9229;52.354;20.886;2023-04-27T03:46:34;9.77;;;5.60;;
18206;SDS011;9229;52.354;20.886;2023-04-27T03:51:37;7.55;;;5.20;;
18206;SDS011;9229;52.354;20.886;2023-04-27T03:56:43;13.55;;;6.93;;
18206;SDS011;9229;52.354;20.886;2023-04-27T04:01:47;11.45;;;6.22;;
18206;SDS011;9229;52.354;20.886;2023-04-27T04:06:49;9.63;;;6.18;;
18206;SDS011;9229;52.354;20.886;2023-04-27T04:11:55;20.15;;;8.40;;
18206;SDS011;9229;52.354;20.886;2023-04-27T04:16:58;17.27;;;8.88;;
18206;SDS011;9229;52.354;20.886;2023-04-27T04:22:01;17.63;;;8.63;;
18206;SDS011;9229;52.354;20.886;2023-04-27T04:27:04;13.70;;;8.73;;
18206;SDS011;9229;52.354;20.886;2023-04-27T04:32:06;22.25;;;9.07;;
18206;SDS011;9229;52.354;20.886;2023-04-27T04:37:10;20.80;;;9.18;;
18206;SDS011;9229;52.354;20.886;2023-04-27T04:42:15;26.95;;;9.98;;
18206;SDS011;9229;52.354;20.886;2023-04-27T04:47:17;23.38;;;10.05;;
18206;SDS011;9229;52.354;20.886;2023-04-27T04:52:20;22.42;;;9.60;;
18206;SDS011;9229;52.354;20.886;2023-04-27T04:57:24;16.70;;;9.55;;
18206;SDS011;9229;52.354;20.886;2023-04-27T05:02:40;24.77;;;10.13;;
18206;SDS011;9229;52.354;20.886;2023-04-27T05:07:42;19.13;;;10.30;;
18206;SDS011;9229;52.354;20.886;2023-04-27T05:12:48;20.27;;;9.90;;
18206;SDS011;9229;52.354;20.886;2023-04-27T05:17:51;14.93;;;8.55;;
18206;SDS011;9229;52.354;20.886;2023-04-27T05:22:54;16.20;;;8.00;;
18206;SDS011;9229;52.354;20.886;2023-04-27T05:27:57;13.60;;;7.78;;
18206;SDS011;9229;52.354;20.886;2023-04-27T05:33:02;14.10;;;7.75;;
18206;SDS011;9229;52.354;20.886;2023-04-27T05:38:05;17.13;;;8.10;;
18206;SDS011;9229;52.354;20.886;2023-04-27T05:43:09;14.27;;;8.23;;
18206;SDS011;9229;52.354;20.886;2023-04-27T05:48:18;11.70;;;7.78;;
18206;SDS011;9229;52.354;20.886;2023-04-27T05:53:21;17.30;;;9.02;;
18206;SDS011;9229;52.354;20.886;2023-04-27T05:58:25;20.58;;;8.98;;
18206;SDS011;9229;52.354;20.886;2023-04-27T06:03:27;15.65;;;8.77;;
18206;SDS011;9229;52.354;20.886;2023-04-27T06:08:33;15.35;;;7.47;;
18206;SDS011;9229;52.354;20.886;2023-04-27T06:13:41;10.20;;;7.63;;
18206;SDS011;9229;52.354;20.886;2023-04-27T06:18:45;12.45;;;7.32;;
18206;SDS011;9229;52.354;20.886;2023-04-27T06:23:55;10.82;;;7.13;;
18206;SDS011;9229;52.354;20.886;2023-04-27T06:29:07;12.32;;;7.93;;
18206;SDS011;9229;52.354;20.886;2023-04-27T06:35:00;11.35;;;7.32;;
18206;SDS011;9229;52.354;20.886;2023-04-27T06:40:05;11.75;;;6.80;;
18206;SDS011;9229;52.354;20.886;2023-04-27T06:51:13;6.97;;;5.80;;
18206;SDS011;9229;52.354;20.886;2023-04-27T06:56:18;9.65;;;6.32;;
18206;SDS011;9229;52.354;20.886;2023-04-27T07:01:44;10.32;;;6.25;;
18206;SDS011;9229;52.354;20.886;2023-04-27T07:12:11;14.80;;;5.25;;
18206;SDS011;9229;52.354;20.886;2023-04-27T07:17:14;11.57;;;5.72;;
18206;SDS011;9229;52.354;20.886;2023-04-27T07:27:46;7.40;;;4.20;;
18206;SDS011;9229;52.354;20.886;2023-04-27T07:32:50;9.48;;;3.80;;
18206;SDS011;9229;52.354;20.886;2023-04-27T07:37:58;7.43;;;3.20;;
18206;SDS011;9229;52.354;20.886;2023-04-27T07:43:02;3.72;;;2.70;;
18206;SDS011;9229;52.354;20.886;2023-04-27T07:48:10;5.30;;;3.55;;
18206;SDS011;9229;52.354;20.886;2023-04-27T07:53:17;7.10;;;3.63;;
18206;SDS011;9229;52.354;20.886;2023-04-27T07:58:24;4.78;;;3.30;;
18206;SDS011;9229;52.354;20.886;2023-04-27T08:03:29;4.80;;;3.42;;
18206;SDS011;9229;52.354;20.886;2023-04-27T08:08:33;7.32;;;4.03;;
18206;SDS011;9229;52.354;20.886;2023-04-27T08:13:36;6.47;;;3.95;;
18206;SDS011;9229;52.354;20.886;2023-04-27T08:18:39;18.38;;;4.35;;
18206;SDS011;9229;52.354;20.886;2023-04-27T08:23:43;5.57;;;4.00;;
18206;SDS011;9229;52.354;20.886;2023-04-27T08:28:47;5.57;;;4.07;;
18206;SDS011;9229;52.354;20.886;2023-04-27T08:33:52;5.72;;;4.30;;
18206;SDS011;9229;52.354;20.886;2023-04-27T08:38:59;6.82;;;3.47;;
18206;SDS011;9229;52.354;20.886;2023-04-27T08:44:05;5.05;;;3.10;;
18206;SDS011;9229;52.354;20.886;2023-04-27T08:49:08;8.57;;;3.38;;
18206;SDS011;9229;52.354;20.886;2023-04-27T08:54:15;3.47;;;3.03;;
18206;SDS011;9229;52.354;20.886;2023-04-27T08:59:21;6.72;;;3.47;;
18206;SDS011;9229;52.354;20.886;2023-04-27T09:04:24;3.58;;;3.38;;
18206;SDS011;9229;52.354;20.886;2023-04-27T09:09:38;3.75;;;3.45;;
18206;SDS011;9229;52.354;20.886;2023-04-27T09:14:42;6.70;;;3.83;;
18206;SDS011;9229;52.354;20.886;2023-04-27T09:19:48;6.05;;;3.40;;
18206;SDS011;9229;52.354;20.886;2023-04-27T09:24:54;5.47;;;3.10;;
18206;SDS011;9229;52.354;20.886;2023-04-27T09:29:57;3.05;;;2.83;;
18206;SDS011;9229;52.354;20.886;2023-04-27T09:34:59;4.97;;;2.72;;
18206;SDS011;9229;52.354;20.886;2023-04-27T09:40:03;3.65;;;3.20;;
18206;SDS011;9229;52.354;20.886;2023-04-27T09:45:06;6.38;;;2.50;;
18206;SDS011;9229;52.354;20.886;2023-04-27T09:50:16;5.78;;;3.28;;
18206;SDS011;9229;52.354;20.886;2023-04-27T09:55:22;4.45;;;3.08;;
18206;SDS011;9229;52.354;20.886;2023-04-27T10:00:31;4.07;;;3.25;;
18206;SDS011;9229;52.354;20.886;2023-04-27T10:05:49;4.28;;;3.50;;
18206;SDS011;9229;52.354;20.886;2023-04-27T10:11:17;4.60;;;4.18;;
18206;SDS011;9229;52.354;20.886;2023-04-27T10:16:21;4.70;;;4.30;;
18206;SDS011;9229;52.354;20.886;2023-04-27T10:21:26;4.97;;;4.28;;
18206;SDS011;9229;52.354;20.886;2023-04-27T10:26:31;6.95;;;4.80;;
18206;SDS011;9229;52.354;20.886;2023-04-27T10:31:41;4.32;;;4.03;;
18206;SDS011;9229;52.354;20.886;2023-04-27T10:36:45;5.68;;;4.40;;
18206;SDS011;9229;52.354;20.886;2023-04-27T10:41:49;3.95;;;3.75;;
18206;SDS011;9229;52.354;20.886;2023-04-27T10:46:53;8.20;;;4.00;;
18206;SDS011;9229;52.354;20.886;2023-04-27T10:51:56;6.95;;;4.22;;
18206;SDS011;9229;52.354;20.886;2023-04-27T10:57:08;4.25;;;3.95;;
18206;SDS011;9229;52.354;20.886;2023-04-27T11:02:26;6.25;;;3.78;;
18206;SDS011;9229;52.354;20.886;2023-04-27T11:07:30;4.82;;;3.95;;
18206;SDS011;9229;52.354;20.886;2023-04-27T11:17:39;9.35;;;3.95;;
18206;SDS011;9229;52.354;20.886;2023-04-27T11:22:44;4.03;;;3.60;;
18206;SDS011;9229;52.354;20.886;2023-04-27T11:27:48;3.13;;;2.90;;
18206;SDS011;9229;52.354;20.886;2023-04-27T11:32:52;3.42;;;3.03;;
18206;SDS011;9229;52.354;20.886;2023-04-27T11:37:55;3.17;;;2.92;;
18206;SDS011;9229;52.354;20.886;2023-04-27T11:43:00;3.35;;;2.83;;
18206;SDS011;9229;52.354;20.886;2023-04-27T11:48:03;4.40;;;3.15;;
18206;SDS011;9229;52.354;20.886;2023-04-27T11:53:06;3.78;;;2.83;;
18206;SDS011;9229;52.354;20.886;2023-04-27T11:58:14;2.53;;;2.38;;
18206;SDS011;9229;52.354;20.886;2023-04-27T12:03:16;5.88;;;2.85;;
18206;SDS011;9229;52.354;20.886;2023-04-27T12:08:20;4.63;;;3.00;;
18206;SDS011;9229;52.354;20.886;2023-04-27T12:13:23;4.70;;;2.42;;
18206;SDS011;9229;52.354;20.886;2023-04-27T12:18:26;2.65;;;2.50;;
18206;SDS011;9229;52.354;20.886;2023-04-27T12:23:32;2.40;;;2.22;;
18206;SDS011;9229;52.354;20.886;2023-04-27T12:28:35;2.85;;;2.63;;
18206;SDS011;9229;52.354;20.886;2023-04-27T12:33:37;3.00;;;2.80;;
18206;SDS011;9229;52.354;20.886;2023-04-27T12:38:40;2.88;;;2.42;;
18206;SDS011;9229;52.354;20.886;2023-04-27T12:43:44;3.10;;;2.90;;
18206;SDS011;9229;52.354;20.886;2023-04-27T12:48:47;2.42;;;2.30;;
18206;SDS011;9229;52.354;20.886;2023-04-27T12:53:49;2.67;;;2.47;;
18206;SDS011;9229;52.354;20.886;2023-04-27T12:58:53;2.78;;;2.58;;
18206;SDS011;9229;52.354;20.886;2023-04-27T13:03:57;2.80;;;2.58;;
18206;SDS011;9229;52.354;20.886;2023-04-27T13:09:01;2.90;;;2.70;;
18206;SDS011;9229;52.354;20.886;2023-04-27T13:14:07;3.10;;;2.83;;
18206;SDS011;9229;52.354;20.886;2023-04-27T13:19:11;9.02;;;2.90;;
18206;SDS011;9229;52.354;20.886;2023-04-27T13:24:15;3.95;;;2.63;;
18206;SDS011;9229;52.354;20.886;2023-04-27T13:29:19;2.95;;;2.75;;
18206;SDS011;9229;52.354;20.886;2023-04-27T13:34:23;5.40;;;2.35;;
18206;SDS011;9229;52.354;20.886;2023-04-27T13:39:25;5.30;;;2.83;;
18206;SDS011;9229;52.354;20.886;2023-04-27T13:44:29;4.45;;;2.78;;
18206;SDS011;9229;52.354;20.886;2023-04-27T13:49:31;4.43;;;2.72;;
18206;SDS011;9229;52.354;20.886;2023-04-27T13:54:36;4.53;;;2.67;;
18206;SDS011;9229;52.354;20.886;2023-04-27T13:59:40;2.28;;;2.15;;
18206;SDS011;9229;52.354;20.886;2023-04-27T14:04:44;5.45;;;2.40;;
18206;SDS011;9229;52.354;20.886;2023-04-27T14:09:48;2.75;;;2.53;;
18206;SDS011;9229;52.354;20.886;2023-04-27T14:14:52;2.47;;;2.38;;
18206;SDS011;9229;52.354;20.886;2023-04-27T14:19:54;2.90;;;2.40;;
18206;SDS011;9229;52.354;20.886;2023-04-27T14:24:56;3.08;;;2.70;;
18206;SDS011;9229;52.354;20.886;2023-04-27T14:29:59;3.78;;;2.13;;
18206;SDS011;9229;52.354;20.886;2023-04-27T14:35:03;5.35;;;2.33;;
18206;SDS011;9229;52.354;20.886;2023-04-27T14:40:06;4.55;;;2.70;;
18206;SDS011;9229;52.354;20.886;2023-04-27T14:45:14;2.78;;;2.55;;
18206;SDS011;9229;52.354;20.886;2023-04-27T14:50:18;5.03;;;2.65;;
18206;SDS011;9229;52.354;20.886;2023-04-27T14:55:21;2.60;;;2.50;;
18206;SDS011;9229;52.354;20.886;2023-04-27T15:00:33;2.58;;;2.47;;
18206;SDS011;9229;52.354;20.886;2023-04-27T15:05:37;5.72;;;3.00;;
18206;SDS011;9229;52.354;20.886;2023-04-27T15:10:39;3.28;;;2.70;;
18206;SDS011;9229;52.354;20.886;2023-04-27T15:15:45;3.65;;;2.92;;
18206;SDS011;9229;52.354;20.886;2023-04-27T15:20:49;8.55;;;2.95;;
18206;SDS011;9229;52.354;20.886;2023-04-27T15:25:58;6.15;;;2.80;;
18206;SDS011;9229;52.354;20.886;2023-04-27T15:31:03;3.45;;;3.15;;
18206;SDS011;9229;52.354;20.886;2023-04-27T15:36:05;6.95;;;3.38;;
18206;SDS011;9229;52.354;20.886;2023-04-27T15:41:08;2.95;;;2.75;;
18206;SDS011;9229;52.354;20.886;2023-04-27T15:46:11;5.32;;;3.08;;
18206;SDS011;9229;52.354;20.886;2023-04-27T15:51:13;6.40;;;3.58;;
18206;SDS011;9229;52.354;20.886;2023-04-27T15:56:18;3.85;;;2.90;;
18206;SDS011;9229;52.354;20.886;2023-04-27T16:01:30;7.35;;;3.28;;
18206;SDS011;9229;52.354;20.886;2023-04-27T16:06:35;3.45;;;3.20;;
18206;SDS011;9229;52.354;20.886;2023-04-27T16:11:38;4.47;;;3.33;;
18206;SDS011;9229;52.354;20.886;2023-04-27T16:16:44;7.28;;;3.10;;
18206;SDS011;9229;52.354;20.886;2023-04-27T16:21:46;4.00;;;3.30;;
18206;SDS011;9229;52.354;20.886;2023-04-27T16:26:49;3.63;;;3.33;;
18206;SDS011;9229;52.354;20.886;2023-04-27T16:31:52;4.05;;;3.67;;
18206;SDS011;9229;52.354;20.886;2023-04-27T16:36:54;6.07;;;3.75;;
18206;SDS011;9229;52.354;20.886;2023-04-27T16:41:56;3.60;;;3.30;;
18206;SDS011;9229;52.354;20.886;2023-04-27T16:47:00;3.63;;;3.38;;
18206;SDS011;9229;52.354;20.886;2023-04-27T16:52:05;4.32;;;4.00;;
18206;SDS011;9229;52.354;20.886;2023-04-27T16:57:07;6.90;;;4.00;;
18206;SDS011;9229;52.354;20.886;2023-04-27T17:02:10;5.30;;;4.78;;
18206;SDS011;9229;52.354;20.886;2023-04-27T17:07:12;5.70;;;5.15;;
18206;SDS011;9229;52.354;20.886;2023-04-27T17:12:20;5.63;;;4.13;;
18206;SDS011;9229;52.354;20.886;2023-04-27T17:17:23;11.90;;;4.40;;
18206;SDS011;9229;52.354;20.886;2023-04-27T17:22:25;5.90;;;4.25;;
18206;SDS011;9229;52.354;20.886;2023-04-27T17:27:29;6.97;;;4.38;;
18206;SDS011;9229;52.354;20.886;2023-04-27T17:32:33;4.38;;;3.50;;
18206;SDS011;9229;52.354;20.886;2023-04-27T17:37:35;12.63;;;4.10;;
18206;SDS011;9229;52.354;20.886;2023-04-27T17:42:37;11.02;;;5.30;;
18206;SDS011;9229;52.354;20.886;2023-04-27T17:47:43;7.75;;;4.82;;
18206;SDS011;9229;52.354;20.886;2023-04-27T17:52:45;7.43;;;5.15;;
18206;SDS011;9229;52.354;20.886;2023-04-27T17:57:50;8.80;;;5.80;;
18206;SDS011;9229;52.354;20.886;2023-04-27T18:02:53;15.82;;;6.95;;
18206;SDS011;9229;52.354;20.886;2023-04-27T18:07:55;14.10;;;6.88;;
18206;SDS011;9229;52.354;20.886;2023-04-27T18:13:07;11.65;;;6.38;;
18206;SDS011;9229;52.354;20.886;2023-04-27T18:18:11;14.40;;;7.28;;
18206;SDS011;9229;52.354;20.886;2023-04-27T18:23:19;14.38;;;5.82;;
18206;SDS011;9229;52.354;20.886;2023-04-27T18:28:26;10.32;;;6.82;;
18206;SDS011;9229;52.354;20.886;2023-04-27T18:33:29;14.32;;;7.65;;
18206;SDS011;9229;52.354;20.886;2023-04-27T18:38:33;29.65;;;11.95;;
18206;SDS011;9229;52.354;20.886;2023-04-27T18:43:36;36.10;;;16.17;;
18206;SDS011;9229;52.354;20.886;2023-04-27T18:48:39;31.83;;;14.48;;
18206;SDS011;9229;52.354;20.886;2023-04-27T18:53:41;24.25;;;11.75;;
18206;SDS011;9229;52.354;20.886;2023-04-27T18:58:44;26.80;;;11.80;;
18206;SDS011;9229;52.354;20.886;2023-04-27T19:03:50;17.45;;;9.10;;
18206;SDS011;9229;52.354;20.886;2023-04-27T19:08:55;16.38;;;8.32;;
18206;SDS011;9229;52.354;20.886;2023-04-27T19:13:57;13.20;;;8.23;;
18206;SDS011;9229;52.354;20.886;2023-04-27T19:19:01;12.75;;;7.18;;
18206;SDS011;9229;52.354;20.886;2023-04-27T19:24:04;16.77;;;9.70;;
18206;SDS011;9229;52.354;20.886;2023-04-27T19:29:06;25.52;;;11.98;;
18206;SDS011;9229;52.354;20.886;2023-04-27T19:34:10;23.00;;;11.05;;
18206;SDS011;9229;52.354;20.886;2023-04-27T19:39:12;33.72;;;11.07;;
18206;SDS011;9229;52.354;20.886;2023-04-27T19:44:17;26.42;;;12.68;;
18206;SDS011;9229;52.354;20.886;2023-04-27T19:49:23;33.50;;;13.43;;
18206;SDS011;9229;52.354;20.886;2023-04-27T19:54:25;22.98;;;13.13;;
18206;SDS011;9229;52.354;20.886;2023-04-27T19:59:27;31.80;;;16.15;;
18206;SDS011;9229;52.354;20.886;2023-04-27T20:04:31;46.80;;;18.88;;
18206;SDS011;9229;52.354;20.886;2023-04-27T20:09:34;56.45;;;21.50;;
18206;SDS011;9229;52.354;20.886;2023-04-27T20:14:36;53.55;;;17.52;;
18206;SDS011;9229;52.354;20.886;2023-04-27T20:19:48;38.20;;;16.27;;
18206;SDS011;9229;52.354;20.886;2023-04-27T20:25:01;48.15;;;16.38;;
18206;SDS011;9229;52.354;20.886;2023-04-27T20:30:20;44.65;;;14.60;;
18206;SDS011;9229;52.354;20.886;2023-04-27T20:35:23;38.78;;;13.05;;
18206;SDS011;9229;52.354;20.886;2023-04-27T20:40:26;38.72;;;13.93;;
18206;SDS011;9229;52.354;20.886;2023-04-27T20:45:29;30.20;;;13.70;;
18206;SDS011;9229;52.354;20.886;2023-04-27T20:50:32;37.28;;;16.23;;
18206;SDS011;9229;52.354;20.886;2023-04-27T20:55:34;46.10;;;13.27;;
18206;SDS011;9229;52.354;20.886;2023-04-27T21:00:37;30.13;;;13.90;;
18206;SDS011;9229;52.354;20.886;2023-04-27T21:05:41;35.08;;;13.40;;
18206;SDS011;9229;52.354;20.886;2023-04-27T21:10:46;28.33;;;14.27;;
18206;SDS011;9229;52.354;20.886;2023-04-27T21:15:48;26.83;;;12.85;;
18206;SDS011;9229;52.354;20.886;2023-04-27T21:20:51;26.58;;;12.68;;
18206;SDS011;9229;52.354;20.886;2023-04-27T21:25:53;28.23;;;12.20;;
18206;SDS011;9229;52.354;20.886;2023-04-27T21:30:55;23.65;;;11.85;;
18206;SDS011;9229;52.354;20.886;2023-04-27T21:35:59;23.52;;;11.07;;
18206;SDS011;9229;52.354;20.886;2023-04-27T21:41:05;26.25;;;11.13;;
18206;SDS011;9229;52.354;20.886;2023-04-27T21:46:07;22.45;;;11.27;;
18206;SDS011;9229;52.354;20.886;2023-04-27T21:51:10;18.13;;;10.40;;
18206;SDS011;9229;52.354;20.886;2023-04-27T21:56:12;22.15;;;11.45;;
18206;SDS011;9229;52.354;20.886;2023-04-27T22:01:15;18.83;;;10.43;;
18206;SDS011;9229;52.354;20.886;2023-04-27T22:06:19;23.52;;;11.82;;
18206;SDS011;9229;52.354;20.886;2023-04-27T22:11:21;25.30;;;12.82;;
18206;SDS011;9229;52.354;20.886;2023-04-27T22:16:23;30.00;;;13.35;;
18206;SDS011;9229;52.354;20.886;2023-04-27T22:21:30;30.17;;;13.50;;
18206;SDS011;9229;52.354;20.886;2023-04-27T22:26:33;28.90;;;14.23;;
18206;SDS011;9229;52.354;20.886;2023-04-27T22:31:37;31.90;;;15.13;;
18206;SDS011;9229;52.354;20.886;2023-04-27T22:36:40;49.03;;;16.95;;
18206;SDS011;9229;52.354;20.886;2023-04-27T22:41:43;42.00;;;17.40;;
18206;SDS011;9229;52.354;20.886;2023-04-27T22:46:46;68.47;;;23.58;;
18206;SDS011;9229;52.354;20.886;2023-04-27T22:51:49;48.90;;;19.88;;
18206;SDS011;9229;52.354;20.886;2023-04-27T22:56:53;62.25;;;22.00;;
18206;SDS011;9229;52.354;20.886;2023-04-27T23:01:56;67.65;;;24.90;;
18206;SDS011;9229;52.354;20.886;2023-04-27T23:07:00;73.10;;;22.45;;
18206;SDS011;9229;52.354;20.886;2023-04-27T23:12:06;55.97;;;21.08;;
18206;SDS011;9229;52.354;20.886;2023-04-27T23:17:09;50.17;;;17.88;;
18206;SDS011;9229;52.354;20.886;2023-04-27T23:22:15;46.47;;;18.08;;
18206;SDS011;9229;52.354;20.886;2023-04-27T23:27:19;48.55;;;18.80;;
18206;SDS011;9229;52.354;20.886;2023-04-27T23:32:24;39.40;;;15.23;;
18206;SDS011;9229;52.354;20.886;2023-04-27T23:37:30;33.60;;;14.60;;
18206;SDS011;9229;52.354;20.886;2023-04-27T23:42:32;25.75;;;11.35;;
18206;SDS011;9229;52.354;20.886;2023-04-27T23:47:34;34.78;;;13.95;;
18206;SDS011;9229;52.354;20.886;2023-04-27T23:52:38;45.53;;;16.75;;
18206;SDS011;9229;52.354;20.886;2023-04-27T23:57:40;42.70;;;15.50;;
